createdAt,value
2022-11-17T00:01:37.865Z,5.90
2022-11-17T00:04:04.696Z,1.63
2022-11-17T00:06:31.380Z,6.20
2022-11-17T00:08:58.120Z,6.57
2022-11-17T00:11:25.828Z,5.07
2022-11-17T00:14:11.121Z,3.70
2022-11-17T00:16:37.856Z,10.77
2022-11-17T00:19:23.442Z,11.40
2022-11-17T00:21:50.189Z,10.60
2022-11-17T00:24:17.436Z,12.77
2022-11-17T00:27:02.420Z,16.65
2022-11-17T00:29:30.219Z,12.70
2022-11-17T00:32:15.752Z,16.58
2022-11-17T00:34:42.567Z,18.27
2022-11-17T00:37:10.771Z,15.57
2022-11-17T00:39:37.863Z,19.85
2022-11-17T00:42:04.698Z,22.02
2022-11-17T00:44:31.821Z,23.80
2022-11-17T00:46:58.540Z,19.58
2022-11-17T00:49:25.489Z,19.95
2022-11-17T00:51:56.754Z,20.13
2022-11-17T00:54:25.493Z,20.75
2022-11-17T00:56:52.289Z,19.98
2022-11-17T00:59:19.067Z,23.15
2022-11-17T01:01:45.912Z,25.30
2022-11-17T01:04:14.226Z,30.35
2022-11-17T01:06:49.076Z,23.27
2022-11-17T01:09:19.606Z,24.20
2022-11-17T01:11:47.833Z,26.98
2022-11-17T01:14:20.413Z,28.33
2022-11-17T01:16:47.281Z,26.10
2022-11-17T01:19:17.600Z,35.55
2022-11-17T01:21:44.527Z,29.27
2022-11-17T01:24:13.303Z,28.02
2022-11-17T01:26:41.217Z,21.05
2022-11-17T01:29:10.928Z,19.90
2022-11-17T01:31:40.003Z,17.40
2022-11-17T01:34:07.902Z,30.27
2022-11-17T01:36:55.592Z,29.65
2022-11-17T01:39:25.148Z,26.35
2022-11-17T01:41:53.276Z,26.92
2022-11-17T01:44:41.963Z,27.65
2022-11-17T01:47:17.779Z,22.15
2022-11-17T01:49:45.718Z,22.80
2022-11-17T01:52:13.157Z,23.38
2022-11-17T01:54:42.735Z,18.13
2022-11-17T01:57:15.038Z,25.40
2022-11-17T02:02:10.490Z,20.33
2022-11-17T02:04:53.760Z,20.33
2022-11-17T02:07:28.733Z,20.60
2022-11-17T02:09:57.226Z,18.38
2022-11-17T02:12:27.260Z,25.85
2022-11-17T02:14:55.286Z,19.38
2022-11-17T02:17:25.829Z,19.50
2022-11-17T02:20:12.657Z,21.27
2022-11-17T02:23:25.693Z,23.15
2022-11-17T02:28:32.070Z,22.88
2022-11-17T02:31:06.713Z,21.83
2022-11-17T02:33:59.921Z,19.70
2022-11-17T02:36:36.538Z,27.15
2022-11-17T02:39:22.540Z,26.60
2022-11-17T02:42:49.295Z,22.65
2022-11-17T02:45:25.049Z,25.33
2022-11-17T02:47:54.942Z,24.08
2022-11-17T02:50:28.378Z,24.65
2022-11-17T02:52:55.907Z,24.75
2022-11-17T02:55:22.707Z,27.58
2022-11-17T02:57:49.914Z,28.58
2022-11-17T03:03:19.943Z,32.33
2022-11-17T03:06:04.192Z,31.80
2022-11-17T03:08:40.052Z,35.45
2022-11-17T03:11:09.211Z,35.40
2022-11-17T03:13:49.507Z,38.25
2022-11-17T03:16:38.166Z,40.00
2022-11-17T03:19:29.501Z,39.22
2022-11-17T03:22:17.061Z,41.10
2022-11-17T03:24:49.567Z,44.00
2022-11-17T03:27:31.174Z,37.40
2022-11-17T03:30:02.166Z,41.27
2022-11-17T03:32:33.883Z,51.65
2022-11-17T03:35:08.423Z,57.00
2022-11-17T03:37:39.827Z,56.05
2022-11-17T03:40:10.965Z,51.42
2022-11-17T03:42:42.043Z,65.40
2022-11-17T03:45:20.368Z,57.85
2022-11-17T03:47:51.974Z,83.78
2022-11-17T03:50:25.352Z,69.67
2022-11-17T03:52:52.648Z,56.45
2022-11-17T03:55:19.602Z,58.45
2022-11-17T03:57:58.363Z,56.17
2022-11-17T04:00:25.483Z,69.28
2022-11-17T04:02:55.861Z,67.07
2022-11-17T04:05:22.818Z,84.78
2022-11-17T04:07:49.696Z,89.35
2022-11-17T04:10:25.934Z,110.63
2022-11-17T04:13:12.315Z,78.70
2022-11-17T04:15:57.388Z,62.13
2022-11-17T04:18:24.815Z,85.53
2022-11-17T04:20:53.618Z,52.17
2022-11-17T04:23:20.701Z,76.97
2022-11-17T04:26:10.752Z,89.75
2022-11-17T04:28:41.480Z,55.20
2022-11-17T04:31:20.075Z,50.50
2022-11-17T04:33:48.781Z,39.22
2022-11-17T04:36:18.231Z,37.55
2022-11-17T04:38:50.119Z,39.78
2022-11-17T04:41:37.608Z,37.50
2022-11-17T04:44:06.296Z,45.83
2022-11-17T04:46:34.879Z,38.60
2022-11-17T04:49:02.300Z,44.70
2022-11-17T04:51:32.678Z,48.58
2022-11-17T04:53:59.608Z,43.45
2022-11-17T04:56:27.721Z,53.90
2022-11-17T04:58:55.208Z,48.13
2022-11-17T05:01:23.725Z,50.97
2022-11-17T05:03:54.662Z,57.67
2022-11-17T05:06:36.014Z,69.38
2022-11-17T05:09:08.765Z,60.75
2022-11-17T05:11:54.111Z,42.13
2022-11-17T05:14:24.548Z,40.78
2022-11-17T05:17:11.036Z,39.15
2022-11-17T05:19:46.560Z,46.28
2022-11-17T05:22:37.176Z,35.63
2022-11-17T05:25:05.553Z,43.55
2022-11-17T05:27:34.019Z,33.85
2022-11-17T05:30:01.925Z,49.67
2022-11-17T05:32:28.673Z,48.67
2022-11-17T05:34:55.437Z,47.80
2022-11-17T05:37:22.194Z,58.20
2022-11-17T05:39:48.957Z,34.75
2022-11-17T05:42:15.871Z,53.20
2022-11-17T05:44:42.637Z,53.70
2022-11-17T05:47:09.345Z,45.80
2022-11-17T05:49:36.020Z,51.65
2022-11-17T05:52:02.780Z,55.83
2022-11-17T05:54:29.457Z,59.00
2022-11-17T05:57:02.382Z,45.70
2022-11-17T05:59:39.016Z,72.22
2022-11-17T06:02:14.966Z,60.20
2022-11-17T06:04:41.792Z,53.55
2022-11-17T06:07:08.659Z,59.95
2022-11-17T06:09:39.412Z,57.50
2022-11-17T06:12:06.651Z,56.25
2022-11-17T06:14:37.762Z,55.45
2022-11-17T06:17:11.799Z,56.72
2022-11-17T06:19:45.853Z,49.65
2022-11-17T06:22:13.642Z,78.57
2022-11-17T06:24:46.483Z,69.55
2022-11-17T06:27:16.667Z,46.17
2022-11-17T06:29:45.083Z,50.40
2022-11-17T06:32:14.603Z,85.72
2022-11-17T06:34:43.694Z,93.38
2022-11-17T06:37:11.498Z,56.95
2022-11-17T06:39:38.307Z,85.45
2022-11-17T06:42:05.057Z,48.85
2022-11-17T06:44:32.006Z,72.45
2022-11-17T06:46:58.704Z,60.75
2022-11-17T06:49:25.380Z,41.80
2022-11-17T06:51:53.274Z,66.28
2022-11-17T06:54:19.985Z,46.55
2022-11-17T06:56:46.999Z,66.00
2022-11-17T06:59:15.505Z,64.97
2022-11-17T07:01:42.615Z,40.13
2022-11-17T07:04:09.966Z,46.50
2022-11-17T07:06:37.672Z,55.03
2022-11-17T07:09:05.775Z,38.05
2022-11-17T07:11:34.548Z,59.67
2022-11-17T07:14:01.280Z,38.63
2022-11-17T07:16:29.316Z,39.15
2022-11-17T07:18:56.018Z,72.45
2022-11-17T07:21:22.782Z,41.53
2022-11-17T07:23:49.521Z,47.05
2022-11-17T07:26:16.233Z,43.47
2022-11-17T07:28:43.031Z,34.40
2022-11-17T07:31:09.864Z,43.80
2022-11-17T07:33:37.244Z,52.85
2022-11-17T07:36:10.072Z,38.40
2022-11-17T07:38:38.358Z,55.03
2022-11-17T07:41:06.908Z,60.38
2022-11-17T07:43:35.051Z,61.17
2022-11-17T07:46:11.221Z,50.70
2022-11-17T07:48:38.398Z,34.20
2022-11-17T07:51:06.383Z,49.00
2022-11-17T07:53:35.168Z,69.60
2022-11-17T07:56:10.468Z,47.10
2022-11-17T07:58:38.325Z,46.50
2022-11-17T08:01:10.867Z,35.70
2022-11-17T08:06:06.432Z,48.75
2022-11-17T08:08:34.009Z,54.03
2022-11-17T08:11:08.157Z,47.13
2022-11-17T08:13:35.729Z,47.00
2022-11-17T08:16:02.765Z,34.67
2022-11-17T08:18:30.431Z,30.38
2022-11-17T08:21:11.501Z,34.28
2022-11-17T08:23:38.759Z,35.22
2022-11-17T08:26:08.295Z,40.83
2022-11-17T08:28:37.086Z,32.92
2022-11-17T08:31:06.166Z,42.13
2022-11-17T08:33:33.642Z,37.38
2022-11-17T08:36:02.040Z,38.33
2022-11-17T08:38:29.436Z,36.83
2022-11-17T08:41:03.832Z,32.58
2022-11-17T08:43:30.953Z,28.95
2022-11-17T08:45:57.732Z,20.63
2022-11-17T08:48:25.588Z,25.45
2022-11-17T08:50:52.598Z,20.05
2022-11-17T08:53:21.476Z,21.27
2022-11-17T08:55:48.284Z,27.02
2022-11-17T08:58:15.476Z,24.15
2022-11-17T09:00:43.130Z,17.20
2022-11-17T09:03:10.887Z,26.38
2022-11-17T09:05:42.927Z,22.05
2022-11-17T09:08:43.316Z,22.70
2022-11-17T09:10:56.589Z,26.95
2022-11-17T09:13:23.299Z,24.58
2022-11-17T09:15:50.186Z,21.55
2022-11-17T09:18:17.256Z,24.75
2022-11-17T09:20:45.886Z,28.33
2022-11-17T09:23:13.334Z,24.27
2022-11-17T09:25:40.147Z,27.67
2022-11-17T09:28:06.885Z,20.27
2022-11-17T09:30:34.924Z,31.08
2022-11-17T09:33:01.626Z,23.83
2022-11-17T09:35:28.419Z,20.38
2022-11-17T09:38:00.021Z,21.52
2022-11-17T09:40:29.093Z,24.92
2022-11-17T09:42:58.092Z,14.43
2022-11-17T09:45:34.335Z,18.05
2022-11-17T09:48:39.536Z,15.88
2022-11-17T09:51:00.024Z,19.63
2022-11-17T09:53:38.207Z,19.20
2022-11-17T09:56:09.052Z,19.55
2022-11-17T09:58:41.838Z,16.40
2022-11-17T10:01:19.974Z,17.60
2022-11-17T10:03:50.095Z,18.90
2022-11-17T10:06:23.898Z,18.27
2022-11-17T10:09:25.773Z,17.55
2022-11-17T10:11:57.676Z,15.48
2022-11-17T10:14:29.203Z,22.33
2022-11-17T10:16:58.896Z,17.13
2022-11-17T10:19:27.946Z,15.40
2022-11-17T10:22:11.863Z,15.95
2022-11-17T10:24:50.727Z,14.40
2022-11-17T10:27:17.432Z,16.42
2022-11-17T10:30:23.870Z,18.23
2022-11-17T10:32:56.124Z,22.10
2022-11-17T10:35:34.177Z,19.17
2022-11-17T10:38:08.517Z,17.35
2022-11-17T10:40:41.293Z,21.67
2022-11-17T10:43:14.063Z,20.23
2022-11-17T10:45:49.264Z,18.90
2022-11-17T10:48:20.225Z,16.20
2022-11-17T10:51:04.853Z,19.38
2022-11-17T10:53:44.820Z,16.15
2022-11-17T10:56:19.962Z,16.42
2022-11-17T10:59:17.813Z,18.17
2022-11-17T11:01:49.924Z,15.98
2022-11-17T11:04:33.438Z,22.52
2022-11-17T11:07:14.532Z,20.58
2022-11-17T11:10:09.503Z,17.40
2022-11-17T11:12:47.971Z,17.50
2022-11-17T11:15:23.394Z,19.63
2022-11-17T11:17:51.361Z,18.85
2022-11-17T11:20:24.138Z,19.25
2022-11-17T11:23:13.913Z,26.83
2022-11-17T11:25:58.020Z,16.33
2022-11-17T11:28:51.324Z,24.20
2022-11-17T11:31:39.695Z,21.17
2022-11-17T11:34:57.010Z,20.90
2022-11-17T11:37:34.494Z,21.42
2022-11-17T11:40:21.969Z,21.40
2022-11-17T11:42:58.319Z,25.42
2022-11-17T11:45:47.826Z,17.00
2022-11-17T11:48:24.825Z,22.92
2022-11-17T11:50:58.688Z,19.35
2022-11-17T11:53:54.806Z,19.15
2022-11-17T11:56:27.473Z,16.48
2022-11-17T11:59:07.051Z,23.88
2022-11-17T12:02:14.824Z,18.27
2022-11-17T12:04:51.385Z,16.63
2022-11-17T12:07:32.797Z,20.40
2022-11-17T12:10:20.676Z,14.40
2022-11-17T12:12:48.026Z,20.90
2022-11-17T12:15:20.878Z,16.23
2022-11-17T12:18:05.329Z,20.35
2022-11-17T12:20:32.068Z,13.20
2022-11-17T12:23:09.271Z,16.08
2022-11-17T12:25:43.679Z,12.60
2022-11-17T12:28:30.941Z,12.15
2022-11-17T12:30:58.967Z,15.18
2022-11-17T12:33:48.527Z,17.48
2022-11-17T12:36:30.555Z,14.77
2022-11-17T12:39:07.404Z,14.07
2022-11-17T12:41:49.086Z,12.55
2022-11-17T12:44:37.732Z,14.47
2022-11-17T12:47:24.242Z,14.02
2022-11-17T12:50:10.118Z,14.90
2022-11-17T12:53:09.181Z,13.05
2022-11-17T12:55:35.847Z,17.88
2022-11-17T12:58:40.156Z,12.10
2022-11-17T13:01:25.254Z,13.75
2022-11-17T13:04:03.146Z,12.07
2022-11-17T13:06:37.478Z,12.13
2022-11-17T13:09:27.064Z,12.70
2022-11-17T13:12:01.592Z,13.38
2022-11-17T13:14:28.379Z,12.18
2022-11-17T13:16:55.257Z,11.88
2022-11-17T13:19:42.434Z,13.27
2022-11-17T13:22:21.437Z,17.50
2022-11-17T13:24:50.733Z,17.08
2022-11-17T13:27:28.935Z,14.15
2022-11-17T13:30:16.328Z,18.55
2022-11-17T13:32:43.580Z,15.63
2022-11-17T13:35:36.044Z,13.85
2022-11-17T13:38:13.553Z,20.42
2022-11-17T13:40:42.554Z,15.65
2022-11-17T13:43:19.909Z,14.85
2022-11-17T13:45:52.072Z,15.88
2022-11-17T13:48:43.588Z,14.32
2022-11-17T13:51:28.945Z,16.27
2022-11-17T13:54:04.879Z,18.80
2022-11-17T13:56:36.681Z,18.63
2022-11-17T13:59:26.270Z,16.55
2022-11-17T14:02:20.838Z,18.40
2022-11-17T14:05:06.824Z,15.90
2022-11-17T14:07:36.376Z,14.15
2022-11-17T14:10:28.213Z,14.82
2022-11-17T14:13:00.925Z,17.30
2022-11-17T14:15:39.612Z,16.70
2022-11-17T14:18:28.198Z,14.75
2022-11-17T14:21:11.628Z,20.00
2022-11-17T14:23:38.646Z,14.75
2022-11-17T14:26:06.309Z,14.23
2022-11-17T14:28:33.154Z,11.13
2022-11-17T14:31:00.284Z,15.05
2022-11-17T14:33:27.064Z,12.77
2022-11-17T14:35:58.750Z,9.52
2022-11-17T14:38:25.536Z,10.13
2022-11-17T14:40:53.584Z,15.65
2022-11-17T14:43:21.590Z,16.83
2022-11-17T14:45:49.754Z,14.02
2022-11-17T14:48:19.550Z,10.02
2022-11-17T14:50:47.623Z,10.90
2022-11-17T14:53:14.482Z,10.98
2022-11-17T14:55:41.662Z,9.50
2022-11-17T14:58:10.021Z,8.15
2022-11-17T15:00:37.337Z,12.45
2022-11-17T15:03:04.393Z,9.95
2022-11-17T15:05:31.174Z,10.95
2022-11-17T15:07:58.031Z,11.18
2022-11-17T15:10:24.784Z,16.02
2022-11-17T15:12:51.568Z,14.25
2022-11-17T15:15:19.744Z,13.65
2022-11-17T15:17:46.496Z,12.93
2022-11-17T15:20:13.260Z,16.08
2022-11-17T15:22:40.010Z,15.85
2022-11-17T15:25:08.117Z,15.10
2022-11-17T15:27:34.874Z,11.15
2022-11-17T15:30:01.771Z,12.57
2022-11-17T15:32:28.749Z,12.85
2022-11-17T15:34:55.519Z,11.35
2022-11-17T15:37:22.328Z,10.70
2022-11-17T15:39:49.015Z,12.57
2022-11-17T15:42:15.718Z,11.80
2022-11-17T15:44:42.427Z,17.88
2022-11-17T15:47:09.107Z,15.73
2022-11-17T15:49:35.836Z,13.70
2022-11-17T15:52:02.552Z,17.27
2022-11-17T15:54:29.256Z,18.20
2022-11-17T15:56:55.965Z,13.07
2022-11-17T15:59:22.679Z,13.48
2022-11-17T16:01:49.825Z,17.33
2022-11-17T16:04:16.587Z,12.60
2022-11-17T16:06:45.684Z,16.33
2022-11-17T16:09:13.232Z,15.55
2022-11-17T16:11:41.113Z,15.27
2022-11-17T16:14:08.382Z,17.20
2022-11-17T16:16:37.550Z,12.25
2022-11-17T16:19:05.329Z,13.45
2022-11-17T16:21:32.405Z,13.30
2022-11-17T16:24:00.990Z,15.13
2022-11-17T16:26:29.828Z,11.27
2022-11-17T16:28:57.861Z,20.83
2022-11-17T16:31:27.201Z,17.83
2022-11-17T16:34:02.301Z,17.08
2022-11-17T16:36:36.274Z,20.40
2022-11-17T16:39:06.415Z,20.75
2022-11-17T16:41:35.621Z,19.23
2022-11-17T16:44:06.860Z,18.70
2022-11-17T16:46:33.669Z,18.33
2022-11-17T16:49:03.357Z,15.05
2022-11-17T16:51:30.323Z,14.38
2022-11-17T16:54:07.867Z,21.63
2022-11-17T16:56:34.947Z,20.98
2022-11-17T16:59:01.750Z,17.60
2022-11-17T17:01:30.790Z,21.00
2022-11-17T17:04:02.018Z,18.52
2022-11-17T17:06:29.366Z,21.55
2022-11-17T17:08:56.878Z,18.92
2022-11-17T17:11:24.639Z,19.77
2022-11-17T17:13:51.625Z,17.63
2022-11-17T17:16:19.907Z,20.33
2022-11-17T17:18:47.031Z,20.08
2022-11-17T17:21:17.173Z,14.88
2022-11-17T17:23:46.182Z,18.58
2022-11-17T17:26:17.587Z,14.75
2022-11-17T17:28:46.595Z,15.73
2022-11-17T17:31:20.941Z,18.20
2022-11-17T17:33:48.211Z,18.08
2022-11-17T17:36:17.732Z,16.65
2022-11-17T17:38:47.792Z,19.15
2022-11-17T17:41:20.152Z,17.08
2022-11-17T17:43:48.329Z,16.92
2022-11-17T17:46:17.341Z,16.40
2022-11-17T17:48:45.483Z,16.27
2022-11-17T17:51:14.844Z,19.73
2022-11-17T17:53:42.289Z,18.00
2022-11-17T17:56:14.481Z,19.55
2022-11-17T17:58:42.246Z,21.02
2022-11-17T18:01:14.370Z,25.35
2022-11-17T18:03:46.472Z,18.80
2022-11-17T18:06:16.672Z,23.60
2022-11-17T18:08:43.895Z,25.55
2022-11-17T18:11:13.489Z,29.17
2022-11-17T18:13:43.220Z,34.78
2022-11-17T18:16:12.790Z,27.55
2022-11-17T18:18:40.620Z,30.13
2022-11-17T18:21:10.100Z,32.03
2022-11-17T18:23:37.986Z,30.65
2022-11-17T18:26:25.563Z,30.88
2022-11-17T18:28:57.580Z,34.38
2022-11-17T18:31:26.992Z,31.17
2022-11-17T18:33:56.091Z,30.63
2022-11-17T18:36:23.238Z,34.78
2022-11-17T18:38:52.912Z,31.65
2022-11-17T18:41:21.281Z,32.17
2022-11-17T18:43:48.832Z,30.83
2022-11-17T18:46:23.535Z,33.45
2022-11-17T18:48:52.092Z,37.22
2022-11-17T18:51:21.680Z,35.17
2022-11-17T18:53:50.043Z,36.08
2022-11-17T18:56:21.112Z,31.95
2022-11-17T18:58:48.303Z,30.05
2022-11-17T19:01:20.505Z,25.95
2022-11-17T19:03:50.209Z,33.40
2022-11-17T19:06:18.170Z,30.17
2022-11-17T19:08:45.852Z,25.67
2022-11-17T19:11:13.228Z,37.45
2022-11-17T19:13:41.436Z,31.05
2022-11-17T19:16:29.159Z,30.55
2022-11-17T19:18:56.980Z,31.33
2022-11-17T19:21:33.642Z,45.42
2022-11-17T19:24:03.314Z,34.25
2022-11-17T19:26:35.977Z,37.67
2022-11-17T19:29:16.197Z,35.05
2022-11-17T19:31:43.870Z,37.78
2022-11-17T19:34:10.905Z,34.28
2022-11-17T19:36:37.610Z,33.10
2022-11-17T19:39:04.624Z,32.97
2022-11-17T19:41:36.736Z,27.98
2022-11-17T19:44:06.140Z,31.75
2022-11-17T19:46:33.945Z,31.85
2022-11-17T19:49:00.785Z,37.10
2022-11-17T19:51:29.468Z,32.70
2022-11-17T19:53:58.428Z,28.85
2022-11-17T19:56:26.341Z,25.85
2022-11-17T19:58:54.006Z,27.58
2022-11-17T20:01:28.918Z,28.67
2022-11-17T20:03:57.406Z,27.25
2022-11-17T20:06:27.451Z,28.80
2022-11-17T20:08:55.659Z,22.75
2022-11-17T20:11:25.937Z,29.45
2022-11-17T20:13:56.645Z,25.85
2022-11-17T20:16:26.069Z,27.95
2022-11-17T20:18:57.599Z,26.02
2022-11-17T20:21:25.833Z,25.67
2022-11-17T20:23:52.645Z,27.90
2022-11-17T20:26:25.627Z,30.17
2022-11-17T20:28:52.822Z,32.55
2022-11-17T20:31:28.379Z,34.92
2022-11-17T20:33:57.735Z,36.38
2022-11-17T20:36:24.577Z,38.50
2022-11-17T20:38:59.348Z,31.65
2022-11-17T20:41:26.665Z,32.28
2022-11-17T20:43:55.601Z,28.35
2022-11-17T20:46:23.403Z,31.85
2022-11-17T20:48:50.663Z,27.88
2022-11-17T20:51:22.357Z,29.00
2022-11-17T20:53:49.526Z,29.63
2022-11-17T20:56:17.063Z,28.50
2022-11-17T20:58:44.632Z,28.63
2022-11-17T21:01:12.741Z,31.00
2022-11-17T21:03:39.541Z,31.83
2022-11-17T21:06:06.531Z,32.45
2022-11-17T21:08:35.821Z,32.00
2022-11-17T21:11:05.790Z,28.45
2022-11-17T21:13:34.466Z,30.35
2022-11-17T21:16:12.886Z,31.17
2022-11-17T21:18:45.637Z,35.78
2022-11-17T21:21:12.605Z,32.42
2022-11-17T21:23:40.348Z,34.47
2022-11-17T21:26:09.160Z,33.00
2022-11-17T21:28:37.316Z,30.58
2022-11-17T21:31:11.262Z,25.85
2022-11-17T21:33:40.289Z,33.65
2022-11-17T21:36:11.992Z,34.10
2022-11-17T21:38:38.980Z,29.33
2022-11-17T21:41:16.683Z,24.13
2022-11-17T21:43:46.040Z,30.08
2022-11-17T21:46:15.338Z,28.75
2022-11-17T21:48:43.155Z,31.75
2022-11-17T21:51:18.651Z,24.33
2022-11-17T21:53:45.681Z,30.42
2022-11-17T21:56:12.963Z,30.45
2022-11-17T21:58:40.318Z,30.60
2022-11-17T22:01:12.956Z,26.48
2022-11-17T22:03:41.003Z,27.38
2022-11-17T22:06:13.476Z,28.80
2022-11-17T22:08:42.439Z,23.35
2022-11-17T22:11:11.962Z,34.92
2022-11-17T22:13:39.454Z,26.58
2022-11-17T22:16:09.823Z,28.77
2022-11-17T22:18:36.657Z,28.98
2022-11-17T22:21:04.449Z,30.17
2022-11-17T22:23:31.175Z,30.40
2022-11-17T22:26:00.582Z,29.20
2022-11-17T22:28:27.812Z,26.50
2022-11-17T22:30:54.873Z,30.48
2022-11-17T22:33:22.620Z,29.77
2022-11-17T22:35:50.277Z,30.73
2022-11-17T22:38:17.363Z,28.50
2022-11-17T22:40:44.181Z,33.53
2022-11-17T22:43:15.312Z,27.35
2022-11-17T22:45:42.865Z,30.90
2022-11-17T22:48:09.916Z,34.13
2022-11-17T22:50:36.897Z,27.38
2022-11-17T22:53:03.795Z,31.27
2022-11-17T22:55:32.636Z,33.13
2022-11-17T22:57:59.408Z,33.45
2022-11-17T23:00:26.244Z,30.92
2022-11-17T23:02:53.044Z,31.92
2022-11-17T23:05:19.907Z,37.65
2022-11-17T23:07:46.694Z,34.20
2022-11-17T23:10:13.585Z,34.33
2022-11-17T23:12:40.473Z,35.70
2022-11-17T23:15:08.149Z,30.83
2022-11-17T23:17:35.289Z,34.60
2022-11-17T23:20:02.075Z,34.85
2022-11-17T23:22:28.805Z,33.08
2022-11-17T23:24:55.546Z,35.40
2022-11-17T23:27:23.004Z,36.55
2022-11-17T23:29:50.080Z,33.00
2022-11-17T23:32:16.838Z,31.08
2022-11-17T23:34:43.599Z,29.33
2022-11-17T23:37:10.908Z,32.05
2022-11-17T23:39:37.828Z,31.08
2022-11-17T23:42:05.422Z,25.15
2022-11-17T23:44:32.152Z,28.63
2022-11-17T23:46:58.840Z,26.38
2022-11-17T23:49:25.666Z,28.35
2022-11-17T23:51:52.355Z,29.45
2022-11-17T23:54:19.143Z,22.45
2022-11-17T23:56:45.973Z,24.83
2022-11-17T23:59:12.692Z,21.02
